createdAt,value
2018-04-07T00:01:39.289Z,100863
2018-04-07T00:04:43.142Z,100863
2018-04-07T00:07:47.041Z,100862
2018-04-07T00:10:51.512Z,100857
2018-04-07T00:13:56.197Z,100857
2018-04-07T00:17:01.397Z,100855
2018-04-07T00:20:06.070Z,100855
2018-04-07T00:23:10.009Z,100849
2018-04-07T00:26:14.150Z,100852
2018-04-07T00:29:17.977Z,100848
2018-04-07T00:32:22.189Z,100838
2018-04-07T00:35:26.014Z,100828
2018-04-07T00:38:34.913Z,100832
2018-04-07T00:41:40.371Z,100834
2018-04-07T00:44:45.053Z,100834
2018-04-07T00:47:49.336Z,100837
2018-04-07T00:50:53.931Z,100846
2018-04-07T00:53:57.814Z,100847
2018-04-07T00:57:01.749Z,100859
2018-04-07T01:00:06.072Z,100870
2018-04-07T01:03:09.997Z,100883
2018-04-07T01:06:13.856Z,100878
2018-04-07T01:09:18.173Z,100871
2018-04-07T01:12:22.933Z,100865
2018-04-07T01:15:26.819Z,100868
2018-04-07T01:18:31.577Z,100865
2018-04-07T01:21:35.768Z,100868
2018-04-07T01:24:40.373Z,100864
2018-04-07T01:27:44.602Z,100869
2018-04-07T01:30:50.300Z,100862
2018-04-07T01:33:54.895Z,100856
2018-04-07T01:37:03.714Z,100850
2018-04-07T01:40:07.645Z,100849
2018-04-07T01:43:11.893Z,100843
2018-04-07T01:46:16.492Z,100842
2018-04-07T01:49:20.482Z,100844
2018-04-07T01:52:25.084Z,100841
2018-04-07T01:55:29.009Z,100835
2018-04-07T01:58:33.617Z,100841
2018-04-07T02:01:39.211Z,100836
2018-04-07T02:04:43.098Z,100832
2018-04-07T02:07:47.230Z,100836
2018-04-07T02:10:51.508Z,100836
2018-04-07T02:13:55.347Z,100832
2018-04-07T02:16:59.176Z,100832
2018-04-07T02:20:03.737Z,100839
2018-04-07T02:23:08.856Z,100825
2018-04-07T02:26:12.685Z,100815
2018-04-07T02:29:16.967Z,100814
2018-04-07T02:32:20.740Z,100811
2018-04-07T02:35:28.855Z,100811
2018-04-07T02:38:33.190Z,100808
2018-04-07T02:41:37.868Z,100809
2018-04-07T02:44:41.721Z,100805
2018-04-07T02:47:45.980Z,100810
2018-04-07T02:50:49.845Z,100801
2018-04-07T02:53:54.847Z,100799
2018-04-07T02:56:59.066Z,100800
2018-04-07T03:00:03.510Z,100799
2018-04-07T03:03:08.247Z,100802
2018-04-07T03:06:12.062Z,100795
2018-04-07T03:09:15.875Z,100798
2018-04-07T03:12:20.517Z,100795
2018-04-07T03:15:25.141Z,100792
2018-04-07T03:18:29.100Z,100786
2018-04-07T03:21:35.268Z,100779
2018-04-07T03:24:39.843Z,100770
2018-04-07T03:27:43.963Z,100763
2018-04-07T03:30:49.323Z,100770
2018-04-07T03:33:53.992Z,100775
2018-04-07T03:36:58.245Z,100773
2018-04-07T03:40:02.089Z,100770
2018-04-07T03:43:06.613Z,100771
2018-04-07T03:46:10.482Z,100775
2018-04-07T03:49:15.304Z,100775
2018-04-07T03:52:19.615Z,100772
2018-04-07T03:55:24.844Z,100762
2018-04-07T03:58:29.813Z,100761
2018-04-07T04:01:35.437Z,100760
2018-04-07T04:04:39.291Z,100761
2018-04-07T04:07:43.907Z,100773
2018-04-07T04:10:48.842Z,100773
2018-04-07T04:13:52.660Z,100773
2018-04-07T04:16:56.960Z,100771
2018-04-07T04:20:00.873Z,100770
2018-04-07T04:23:05.441Z,100763
2018-04-07T04:26:09.441Z,100770
2018-04-07T04:29:14.017Z,100768
2018-04-07T04:32:17.853Z,100764
2018-04-07T04:35:21.666Z,100761
2018-04-07T04:38:25.556Z,100760
2018-04-07T04:41:29.787Z,100755
2018-04-07T04:44:34.204Z,100758
2018-04-07T04:47:38.144Z,100754
2018-04-07T04:50:42.360Z,100750
2018-04-07T04:53:46.941Z,100748
2018-04-07T04:56:53.496Z,100744
2018-04-07T04:59:57.704Z,100745
2018-04-07T05:03:01.921Z,100738
2018-04-07T05:06:05.793Z,100732
2018-04-07T05:09:10.164Z,100729
2018-04-07T05:12:14.470Z,100731
2018-04-07T05:15:18.761Z,100732
2018-04-07T05:18:22.769Z,100733
2018-04-07T05:21:26.804Z,100733
2018-04-07T05:24:31.352Z,100736
2018-04-07T05:27:35.934Z,100733
2018-04-07T05:30:40.507Z,100740
2018-04-07T05:33:44.746Z,100734
2018-04-07T05:36:49.316Z,100724
2018-04-07T05:39:53.250Z,100721
2018-04-07T05:42:57.854Z,100709
2018-04-07T05:46:01.693Z,100706
2018-04-07T05:49:05.995Z,100708
2018-04-07T05:52:10.499Z,100708
2018-04-07T05:55:15.081Z,100707
2018-04-07T05:58:19.141Z,100707
2018-04-07T06:01:23.077Z,100712
2018-04-07T06:04:26.981Z,100711
2018-04-07T06:07:31.731Z,100715
2018-04-07T06:10:35.579Z,100708
2018-04-07T06:13:39.765Z,100702
2018-04-07T06:16:43.609Z,100705
2018-04-07T06:19:47.886Z,100700
2018-04-07T06:22:52.618Z,100703
2018-04-07T06:25:56.375Z,100703
2018-04-07T06:29:00.332Z,100702
2018-04-07T06:32:04.630Z,100704
2018-04-07T06:35:08.789Z,100703
2018-04-07T06:38:13.346Z,100706
2018-04-07T06:41:17.178Z,100699
2018-04-07T06:44:25.355Z,100700
2018-04-07T06:47:29.251Z,100698
2018-04-07T06:50:33.108Z,100689
2018-04-07T06:53:36.901Z,100687
2018-04-07T06:56:40.724Z,100691
2018-04-07T06:59:45.086Z,100688
2018-04-07T07:02:48.974Z,100686
2018-04-07T07:05:54.376Z,100682
2018-04-07T07:08:59.155Z,100678
2018-04-07T07:12:02.986Z,100677
2018-04-07T07:15:07.252Z,100683
2018-04-07T07:18:11.479Z,100684
2018-04-07T07:21:16.121Z,100678
2018-04-07T07:24:21.259Z,100681
2018-04-07T07:27:25.612Z,100683
2018-04-07T07:30:30.582Z,100685
2018-04-07T07:33:34.451Z,100680
2018-04-07T07:36:39.027Z,100679
2018-04-07T07:39:42.911Z,100680
2018-04-07T07:42:47.773Z,100674
2018-04-07T07:45:51.732Z,100664
2018-04-07T07:48:56.432Z,100664
2018-04-07T07:52:00.323Z,100660
2018-04-07T07:55:04.581Z,100666
2018-04-07T07:58:08.794Z,100663
2018-04-07T08:01:13.630Z,100668
2018-04-07T08:04:17.838Z,100665
2018-04-07T08:07:22.208Z,100666
2018-04-07T08:10:27.282Z,100665
2018-04-07T08:13:31.382Z,100668
2018-04-07T08:16:35.229Z,100664
2018-04-07T08:19:39.454Z,100659
2018-04-07T08:22:44.241Z,100651
2018-04-07T08:25:48.417Z,100646
2018-04-07T08:28:53.053Z,100654
2018-04-07T08:31:58.456Z,100650
2018-04-07T08:35:02.401Z,100657
2018-04-07T08:38:07.097Z,100654
2018-04-07T08:41:11.731Z,100647
2018-04-07T08:44:15.568Z,100639
2018-04-07T08:47:20.177Z,100636
2018-04-07T08:50:24.439Z,100635
2018-04-07T08:53:28.607Z,100630
2018-04-07T08:56:32.932Z,100627
2018-04-07T08:59:37.806Z,100625
2018-04-07T09:02:42.823Z,100626
2018-04-07T09:05:52.032Z,100621
2018-04-07T09:08:57.340Z,100622
2018-04-07T09:12:01.233Z,100619
2018-04-07T09:15:07.719Z,100622
2018-04-07T09:18:17.851Z,100618
2018-04-07T09:21:22.131Z,100619
2018-04-07T09:24:27.637Z,100620
2018-04-07T09:27:32.587Z,100612
2018-04-07T09:30:38.389Z,100603
2018-04-07T09:33:43.419Z,100599
2018-04-07T09:36:47.747Z,100594
2018-04-07T09:39:52.121Z,100593
2018-04-07T09:42:56.426Z,100588
2018-04-07T09:46:00.970Z,100579
2018-04-07T09:49:05.622Z,100576
2018-04-07T09:52:10.215Z,100574
2018-04-07T09:55:14.079Z,100589
2018-04-07T09:58:18.625Z,100580
2018-04-07T10:01:29.593Z,100572
2018-04-07T10:04:34.766Z,100559
2018-04-07T10:07:38.785Z,100554
2018-04-07T10:10:42.616Z,100555
2018-04-07T10:13:46.632Z,100555
2018-04-07T10:16:50.823Z,100559
2018-04-07T10:19:54.732Z,100564
2018-04-07T10:22:58.978Z,100560
2018-04-07T10:26:03.882Z,100556
2018-04-07T10:29:08.511Z,100547
2018-04-07T10:32:12.422Z,100546
2018-04-07T10:35:16.332Z,100535
2018-04-07T10:38:21.351Z,100542
2018-04-07T10:41:26.078Z,100528
2018-04-07T10:44:29.989Z,100531
2018-04-07T10:47:33.908Z,100530
2018-04-07T10:50:39.062Z,100541
2018-04-07T10:53:43.715Z,100526
2018-04-07T10:56:47.565Z,100526
2018-04-07T10:59:51.887Z,100525
2018-04-07T11:02:55.826Z,100518
2018-04-07T11:06:00.157Z,100502
2018-04-07T11:09:04.041Z,100497
2018-04-07T11:12:07.952Z,100510
2018-04-07T11:15:13.273Z,100506
2018-04-07T11:18:18.505Z,100499
2018-04-07T11:21:22.476Z,100507
2018-04-07T11:24:26.779Z,100502
2018-04-07T11:27:31.395Z,100496
2018-04-07T11:30:35.397Z,100491
2018-04-07T11:33:39.307Z,100491
2018-04-07T11:36:43.263Z,100494
2018-04-07T11:39:47.268Z,100496
2018-04-07T11:42:51.168Z,100493
2018-04-07T11:45:55.250Z,100485
2018-04-07T11:49:00.220Z,100482
2018-04-07T11:52:04.125Z,100476
2018-04-07T11:55:10.094Z,100480
2018-04-07T11:58:16.409Z,100474
2018-04-07T12:01:22.289Z,100467
2018-04-07T12:04:26.593Z,100472
2018-04-07T12:07:31.314Z,100468
2018-04-07T12:10:38.363Z,100470
2018-04-07T12:13:44.500Z,100464
2018-04-07T12:16:49.431Z,100473
2018-04-07T12:19:59.130Z,100471
2018-04-07T12:23:03.554Z,100470
2018-04-07T12:26:09.650Z,100454
2018-04-07T12:29:13.872Z,100456
2018-04-07T12:32:18.899Z,100456
2018-04-07T12:35:22.857Z,100448
2018-04-07T12:38:28.133Z,100445
2018-04-07T12:41:35.169Z,100433
2018-04-07T12:44:40.257Z,100430
2018-04-07T12:47:45.652Z,100419
2018-04-07T12:50:50.607Z,100409
2018-04-07T12:53:54.987Z,100413
2018-04-07T12:56:59.782Z,100413
2018-04-07T13:00:05.036Z,100407
2018-04-07T13:03:11.137Z,100406
2018-04-07T13:06:17.537Z,100401
2018-04-07T13:09:22.744Z,100409
2018-04-07T13:12:27.962Z,100406
2018-04-07T13:15:32.433Z,100389
2018-04-07T13:18:37.666Z,100390
2018-04-07T13:21:42.318Z,100378
2018-04-07T13:24:46.372Z,100375
2018-04-07T13:27:52.024Z,100378
2018-04-07T13:30:57.481Z,100361
2018-04-07T13:34:02.800Z,100359
2018-04-07T13:37:08.290Z,100358
2018-04-07T13:40:12.494Z,100353
2018-04-07T13:43:17.826Z,100319
2018-04-07T13:46:22.766Z,100345
2018-04-07T13:49:28.505Z,100339
2018-04-07T13:52:33.039Z,100339
2018-04-07T13:55:38.912Z,100337
2018-04-07T13:58:43.736Z,100328
2018-04-07T14:01:49.063Z,100323
2018-04-07T14:04:54.246Z,100322
2018-04-07T14:07:58.208Z,100325
2018-04-07T14:11:03.629Z,100325
2018-04-07T14:14:09.722Z,100316
2018-04-07T14:17:13.771Z,100310
2018-04-07T14:20:19.101Z,100299
2018-04-07T14:23:24.188Z,100289
2018-04-07T14:26:28.220Z,100294
2018-04-07T14:29:32.006Z,100284
2018-04-07T14:32:35.971Z,100268
2018-04-07T14:35:39.887Z,100271
2018-04-07T14:38:43.938Z,100270
2018-04-07T14:41:47.769Z,100274
2018-04-07T14:44:53.024Z,100265
2018-04-07T14:51:07.473Z,100259
2018-04-07T14:54:11.700Z,100257
2018-04-07T14:57:15.640Z,100254
2018-04-07T15:00:20.345Z,100252
2018-04-07T15:03:24.806Z,100258
2018-04-07T15:06:29.392Z,100250
2018-04-07T15:09:33.762Z,100248
2018-04-07T15:12:37.694Z,100249
2018-04-07T15:15:41.749Z,100252
2018-04-07T15:18:45.707Z,100248
2018-04-07T15:21:49.525Z,100248
2018-04-07T15:24:53.394Z,100255
2018-04-07T15:27:57.309Z,100259
2018-04-07T15:31:01.207Z,100253
2018-04-07T15:34:05.997Z,100253
2018-04-07T15:37:09.901Z,100259
2018-04-07T15:40:13.915Z,100261
2018-04-07T15:43:18.500Z,100261
2018-04-07T15:46:22.364Z,100255
2018-04-07T15:49:26.194Z,100261
2018-04-07T15:52:30.840Z,100255
2018-04-07T15:55:35.943Z,100266
2018-04-07T15:58:40.644Z,100265
2018-04-07T16:01:47.925Z,100256
2018-04-07T16:04:51.829Z,100254
2018-04-07T16:07:55.684Z,100258
2018-04-07T16:10:59.922Z,100252
2018-04-07T16:14:03.831Z,100256
2018-04-07T16:17:07.682Z,100254
2018-04-07T16:20:11.570Z,100255
2018-04-07T16:23:15.926Z,100251
2018-04-07T16:26:19.873Z,100248
2018-04-07T16:29:24.661Z,100246
2018-04-07T16:32:28.577Z,100261
2018-04-07T16:35:32.506Z,100250
2018-04-07T16:38:36.845Z,100249
2018-04-07T16:41:41.572Z,100250
2018-04-07T16:44:45.486Z,100251
2018-04-07T16:47:50.113Z,100255
2018-04-07T16:50:53.920Z,100248
2018-04-07T16:53:57.862Z,100252
2018-04-07T16:57:02.081Z,100257
2018-04-07T17:00:05.901Z,100259
2018-04-07T17:03:10.997Z,100257
2018-04-07T17:06:15.542Z,100258
2018-04-07T17:09:20.628Z,100266
2018-04-07T17:12:25.740Z,100263
2018-04-07T17:15:29.569Z,100271
2018-04-07T17:18:34.501Z,100265
2018-04-07T17:21:38.334Z,100277
2018-04-07T17:24:42.204Z,100272
2018-04-07T17:27:46.385Z,100278
2018-04-07T17:30:50.237Z,100274
2018-04-07T17:33:54.461Z,100278
2018-04-07T17:36:58.401Z,100287
2018-04-07T17:40:02.370Z,100279
2018-04-07T17:43:06.270Z,100284
2018-04-07T17:46:10.138Z,100279
2018-04-07T17:49:13.979Z,100284
2018-04-07T17:52:18.290Z,100280
2018-04-07T17:55:23.022Z,100285
2018-04-07T17:58:26.864Z,100287
2018-04-07T18:01:30.739Z,100286
2018-04-07T18:04:34.650Z,100287
2018-04-07T18:07:38.565Z,100287
2018-04-07T18:10:43.174Z,100292
2018-04-07T18:13:47.554Z,100288
2018-04-07T18:16:51.402Z,100295
2018-04-07T18:19:55.863Z,100299
2018-04-07T18:23:00.151Z,100305
2018-04-07T18:26:04.471Z,100314
2018-04-07T18:29:08.280Z,100316
2018-04-07T18:32:12.834Z,100324
2018-04-07T18:35:17.187Z,100319
2018-04-07T18:38:21.037Z,100329
2018-04-07T18:41:26.140Z,100328
2018-04-07T18:44:31.337Z,100335
2018-04-07T18:47:35.235Z,100338
2018-04-07T18:50:39.845Z,100340
2018-04-07T18:53:45.070Z,100342
2018-04-07T18:56:49.062Z,100348
2018-04-07T18:59:53.481Z,100351
2018-04-07T19:02:58.245Z,100355
2018-04-07T19:06:02.869Z,100360
2018-04-07T19:09:06.846Z,100367
2018-04-07T19:12:11.537Z,100375
2018-04-07T19:15:16.213Z,100375
2018-04-07T19:18:21.129Z,100378
2018-04-07T19:21:25.749Z,100376
2018-04-07T19:24:29.659Z,100377
2018-04-07T19:27:35.158Z,100379
2018-04-07T19:30:39.142Z,100387
2018-04-07T19:33:43.081Z,100391
2018-04-07T19:36:47.681Z,100395
2018-04-07T19:39:52.490Z,100394
2018-04-07T19:42:57.249Z,100396
2018-04-07T19:46:01.184Z,100396
2018-04-07T19:49:05.508Z,100401
2018-04-07T19:52:09.679Z,100407
2018-04-07T19:55:14.298Z,100408
2018-04-07T19:58:18.250Z,100407
2018-04-07T20:01:22.208Z,100410
2018-04-07T20:04:26.902Z,100411
2018-04-07T20:07:31.448Z,100413
2018-04-07T20:10:36.000Z,100407
2018-04-07T20:13:40.632Z,100411
2018-04-07T20:16:44.873Z,100411
2018-04-07T20:19:49.509Z,100407
2018-04-07T20:22:54.741Z,100402
2018-04-07T20:25:58.773Z,100407
2018-04-07T20:29:03.446Z,100407
2018-04-07T20:32:08.208Z,100406
2018-04-07T20:35:12.070Z,100410
2018-04-07T20:38:16.723Z,100408
2018-04-07T20:41:21.349Z,100414
2018-04-07T20:44:33.881Z,100414
2018-04-07T20:47:37.717Z,100411
2018-04-07T20:50:42.405Z,100422
2018-04-07T20:53:47.172Z,100416
2018-04-07T20:56:51.773Z,100417
2018-04-07T20:59:56.386Z,100417
2018-04-07T21:03:00.262Z,100416
2018-04-07T21:06:04.206Z,100418
2018-04-07T21:09:12.384Z,100415
2018-04-07T21:12:17.397Z,100413
2018-04-07T21:15:21.278Z,100415
2018-04-07T21:18:26.121Z,100416
2018-04-07T21:21:30.430Z,100411
2018-04-07T21:24:34.673Z,100412
2018-04-07T21:27:38.933Z,100411
2018-04-07T21:30:43.593Z,100407
2018-04-07T21:33:48.474Z,100407
2018-04-07T21:36:53.132Z,100406
2018-04-07T21:39:57.725Z,100413
2018-04-07T21:43:02.329Z,100410
2018-04-07T21:46:06.503Z,100404
2018-04-07T21:49:10.966Z,100404
2018-04-07T21:52:14.777Z,100402
2018-04-07T21:55:18.672Z,100401
2018-04-07T21:58:22.633Z,100401
2018-04-07T22:01:26.567Z,100399
2018-04-07T22:04:31.201Z,100400
2018-04-07T22:07:35.852Z,100397
2018-04-07T22:10:40.533Z,100398
2018-04-07T22:13:45.101Z,100401
2018-04-07T22:16:49.103Z,100399
2018-04-07T22:19:53.725Z,100397
2018-04-07T22:22:57.637Z,100401
2018-04-07T22:26:01.938Z,100395
2018-04-07T22:29:06.905Z,100393
2018-04-07T22:32:11.275Z,100395
2018-04-07T22:35:15.489Z,100388
2018-04-07T22:38:19.744Z,100386
2018-04-07T22:41:23.963Z,100378
2018-04-07T22:44:28.532Z,100381
2018-04-07T22:47:34.148Z,100378
2018-04-07T22:50:38.273Z,100381
2018-04-07T22:53:42.901Z,100381
2018-04-07T22:56:48.901Z,100385
2018-04-07T22:59:52.880Z,100387
2018-04-07T23:02:56.717Z,100388
2018-04-07T23:06:00.593Z,100386
2018-04-07T23:09:06.039Z,100385
2018-04-07T23:12:09.851Z,100382
2018-04-07T23:15:13.800Z,100385
2018-04-07T23:18:17.669Z,100386
2018-04-07T23:21:21.700Z,100390
2018-04-07T23:24:26.432Z,100391
2018-04-07T23:27:30.259Z,100392
2018-04-07T23:30:35.381Z,100386
2018-04-07T23:33:39.261Z,100392
2018-04-07T23:36:43.135Z,100385
2018-04-07T23:39:48.278Z,100384
2018-04-07T23:42:52.620Z,100385
2018-04-07T23:45:57.120Z,100383
2018-04-07T23:49:00.929Z,100381
2018-04-07T23:52:05.569Z,100380
2018-04-07T23:55:10.233Z,100379
2018-04-07T23:58:14.596Z,100391
